Time;durP1;ratioP1;P1;durP2;ratioP2;P2;SDS_P1;SDS_P2;PMS_P1;PMS_P2;Temp;Humidity;BMP_temperature;BMP_pressure;BME280_temperature;BME280_humidity;BME280_pressure;Samples;Min_cycle;Max_cycle;Signal;HPM_P1;HPM_P2
2021/09/04 00:00:22;;;;;;;5.67;3.07;;;11.40;90.10;;;;;;2098757;28;20207;-65
2021/09/04 00:01:23;;;;;;;5.90;3.40;;;11.40;90.20;;;;;;2098778;28;20188;-66
2021/09/04 00:02:23;;;;;;;5.23;3.30;;;11.40;90.30;;;;;;2098757;28;20172;-64
2021/09/04 00:03:24;;;;;;;4.80;3.53;;;11.40;90.20;;;;;;2098815;28;20197;-65
2021/09/04 00:04:25;;;;;;;5.07;3.30;;;11.40;90.30;;;;;;2099001;28;20176;-65
2021/09/04 00:05:26;;;;;;;4.97;3.13;;;11.40;90.20;;;;;;2098857;28;20183;-65
2021/09/04 00:06:26;;;;;;;4.63;3.03;;;11.40;90.30;;;;;;2098783;28;20704;-64
2021/09/04 00:07:30;;;;;;;4.63;3.30;;;11.40;90.20;;;;;;2098614;28;20433;-65
2021/09/04 00:08:31;;;;;;;4.18;3.17;;;11.40;90.30;;;;;;2098719;28;20175;-65
2021/09/04 00:09:33;;;;;;;4.20;2.87;;;11.30;90.30;;;;;;2098362;28;20224;-63
2021/09/04 00:10:34;;;;;;;5.57;2.88;;;11.30;90.20;;;;;;2098845;28;20183;-63
2021/09/04 00:11:35;;;;;;;4.18;3.15;;;11.30;90.30;;;;;;2098558;28;20564;-65
2021/09/04 00:12:36;;;;;;;4.00;3.13;;;11.30;90.40;;;;;;2098678;28;20180;-63
2021/09/04 00:13:36;;;;;;;6.83;3.03;;;11.30;90.40;;;;;;2097928;28;20523;-64
2021/09/04 00:14:37;;;;;;;5.23;3.20;;;11.30;90.60;;;;;;2098208;28;20245;-65
2021/09/04 00:15:38;;;;;;;4.33;3.30;;;11.30;90.60;;;;;;2098847;28;20646;-64
2021/09/04 00:16:38;;;;;;;4.13;3.03;;;11.30;90.80;;;;;;2098703;28;20725;-63
2021/09/04 00:17:39;;;;;;;6.37;3.33;;;11.30;90.80;;;;;;2098702;28;20191;-67
2021/09/04 00:18:40;;;;;;;3.57;2.73;;;11.30;90.80;;;;;;2098680;28;20187;-64
2021/09/04 00:19:41;;;;;;;6.33;3.67;;;11.30;90.80;;;;;;2098293;28;20191;-64
2021/09/04 00:20:41;;;;;;;6.37;3.13;;;11.30;90.80;;;;;;2098593;28;20215;-66
2021/09/04 00:21:42;;;;;;;6.37;3.77;;;11.30;90.70;;;;;;2098621;28;20205;-65
2021/09/04 00:22:43;;;;;;;4.37;3.13;;;11.30;90.60;;;;;;2098751;28;20176;-64
2021/09/04 00:23:43;;;;;;;5.37;3.07;;;11.30;90.70;;;;;;2098666;28;20183;-66
2021/09/04 00:24:44;;;;;;;4.80;3.20;;;11.30;90.60;;;;;;2098726;28;20542;-63
2021/09/04 00:25:45;;;;;;;5.60;2.97;;;11.30;90.70;;;;;;2098499;28;20176;-64
2021/09/04 00:26:46;;;;;;;6.30;3.07;;;11.30;90.60;;;;;;2098654;28;20187;-65
2021/09/04 00:27:47;;;;;;;3.20;2.50;;;11.30;90.70;;;;;;2098556;28;20178;-64
2021/09/04 00:28:48;;;;;;;3.73;3.17;;;11.30;90.60;;;;;;2098528;28;20183;-67
2021/09/04 00:29:49;;;;;;;5.13;3.10;;;11.30;90.60;;;;;;2098479;28;20194;-63
2021/09/04 00:30:49;;;;;;;4.50;3.20;;;11.20;90.50;;;;;;2098676;28;20179;-63
2021/09/04 00:31:50;;;;;;;4.60;3.07;;;11.20;90.70;;;;;;2098508;28;20202;-64
2021/09/04 00:32:51;;;;;;;4.73;3.17;;;11.20;90.70;;;;;;2098698;28;20210;-64
2021/09/04 00:33:51;;;;;;;3.17;2.67;;;11.20;90.70;;;;;;2098586;28;20209;-62
2021/09/04 00:34:52;;;;;;;5.60;3.90;;;11.20;90.60;;;;;;2098447;28;20184;-63
2021/09/04 00:35:53;;;;;;;4.47;3.10;;;11.20;90.60;;;;;;2098695;28;20658;-67
2021/09/04 00:36:54;;;;;;;5.63;3.50;;;11.20;90.70;;;;;;2098443;28;20248;-63
2021/09/04 00:37:54;;;;;;;4.70;3.10;;;11.20;90.70;;;;;;2097990;28;20211;-63
2021/09/04 00:38:55;;;;;;;3.83;2.67;;;11.10;90.80;;;;;;2097631;28;20736;-63
2021/09/04 00:39:56;;;;;;;4.07;2.90;;;11.10;90.80;;;;;;2098476;28;20191;-64
2021/09/04 00:40:57;;;;;;;4.70;3.07;;;11.10;90.80;;;;;;2098344;28;20178;-65
2021/09/04 00:41:58;;;;;;;4.50;2.83;;;11.10;90.80;;;;;;2098617;28;20192;-65
2021/09/04 00:42:59;;;;;;;7.00;2.90;;;11.10;91.00;;;;;;2097728;28;20674;-63
2021/09/04 00:44:00;;;;;;;4.67;3.50;;;11.00;91.20;;;;;;2097893;28;20490;-62
2021/09/04 00:45:02;;;;;;;3.83;2.90;;;11.00;91.30;;;;;;2097598;28;20180;-64
2021/09/04 00:46:10;;;;;;;6.78;3.00;;;11.00;91.40;;;;;;2097728;28;20527;-63
2021/09/04 00:47:11;;;;;;;4.32;3.15;;;11.00;91.30;;;;;;2097781;28;20187;-64
2021/09/04 00:48:12;;;;;;;6.57;3.23;;;11.00;91.20;;;;;;2098010;28;20187;-64
2021/09/04 00:49:13;;;;;;;4.37;2.80;;;11.00;91.10;;;;;;2098110;28;20211;-64
2021/09/04 00:50:14;;;;;;;4.13;3.00;;;11.10;91.10;;;;;;2098463;28;20270;-62
2021/09/04 00:51:16;;;;;;;5.13;2.90;;;11.10;91.10;;;;;;2098259;28;20564;-65
2021/09/04 00:52:18;;;;;;;4.75;3.08;;;11.00;91.30;;;;;;2098451;28;20191;-65
2021/09/04 00:53:19;;;;;;;7.35;3.53;;;11.00;91.30;;;;;;2098434;28;20183;-63
2021/09/04 00:54:20;;;;;;;4.37;3.27;;;11.00;91.40;;;;;;2098529;28;20223;-61
2021/09/04 00:55:22;;;;;;;4.90;3.13;;;11.00;91.40;;;;;;2098257;28;20175;-63
2021/09/04 00:56:24;;;;;;;5.03;3.25;;;11.00;91.40;;;;;;2098535;28;20179;-61
2021/09/04 00:57:24;;;;;;;3.92;2.95;;;11.00;91.30;;;;;;2098450;28;20222;-65
2021/09/04 00:58:25;;;;;;;4.80;3.20;;;11.00;91.40;;;;;;2098373;28;20201;-64
2021/09/04 00:59:26;;;;;;;4.60;3.47;;;11.00;91.50;;;;;;2097092;28;20186;-64
2021/09/04 01:00:29;;;;;;;4.88;3.35;;;11.00;91.60;;;;;;2097668;28;20713;-63
2021/09/04 01:01:29;;;;;;;4.25;3.53;;;11.00;91.70;;;;;;2089599;28;20188;-64
2021/09/04 01:02:30;;;;;;;5.80;2.97;;;11.00;91.80;;;;;;2097738;28;20249;-64
2021/09/04 01:03:31;;;;;;;5.27;3.57;;;11.00;91.80;;;;;;2098406;28;20172;-66
2021/09/04 01:04:32;;;;;;;5.03;3.03;;;11.00;91.70;;;;;;2098376;28;20186;-62
2021/09/04 01:05:33;;;;;;;6.50;3.93;;;11.00;91.60;;;;;;2098240;28;20200;-65
2021/09/04 01:06:34;;;;;;;5.67;3.10;;;11.00;91.60;;;;;;2098385;28;20171;-64
2021/09/04 01:07:37;;;;;;;3.85;2.53;;;11.00;92.10;;;;;;2101408;28;20175;-65
2021/09/04 01:08:38;;;;;;;6.97;3.92;;;11.00;91.60;;;;;;2106133;28;20231;-64
2021/09/04 01:09:40;;;;;;;4.43;3.33;;;11.00;91.60;;;;;;2106348;28;20571;-63
2021/09/04 01:10:41;;;;;;;5.45;3.45;;;11.00;91.70;;;;;;2106816;28;20178;-63
2021/09/04 01:11:42;;;;;;;4.82;3.05;;;10.90;91.80;;;;;;2106529;28;20579;-64
2021/09/04 01:12:42;;;;;;;6.73;3.20;;;11.00;91.90;;;;;;2106654;28;20254;-64
2021/09/04 01:13:43;;;;;;;4.70;3.43;;;10.90;91.90;;;;;;2106766;28;20240;-64
2021/09/04 01:14:44;;;;;;;4.60;3.10;;;10.90;92.50;;;;;;2106666;28;20648;-64
2021/09/04 01:15:45;;;;;;;5.87;3.80;;;10.90;91.90;;;;;;2106736;28;20319;-65
2021/09/04 01:16:46;;;;;;;5.93;3.17;;;11.00;91.90;;;;;;2106594;28;20193;-63
2021/09/04 01:17:47;;;;;;;5.50;3.83;;;11.00;92.00;;;;;;2106696;28;20644;-64
2021/09/04 01:18:47;;;;;;;5.47;3.30;;;11.00;91.90;;;;;;2106582;28;20270;-66
2021/09/04 01:19:48;;;;;;;4.40;3.13;;;11.00;91.70;;;;;;2106502;28;20186;-64
2021/09/04 01:20:50;;;;;;;5.43;3.60;;;11.00;91.60;;;;;;2106059;28;20212;-63
2021/09/04 01:21:51;;;;;;;4.05;2.90;;;11.00;91.40;;;;;;2105898;28;20259;-64
2021/09/04 01:22:51;;;;;;;6.50;3.07;;;11.00;91.30;;;;;;2106682;28;20264;-65
2021/09/04 01:23:52;;;;;;;4.33;3.40;;;10.90;91.20;;;;;;2106764;28;20177;-65
2021/09/04 01:24:54;;;;;;;4.00;2.90;;;10.90;91.30;;;;;;2106717;28;20198;-66
2021/09/04 01:25:55;;;;;;;5.95;3.80;;;10.90;91.30;;;;;;2106146;28;20194;-63
2021/09/04 01:26:56;;;;;;;4.60;3.33;;;10.90;91.30;;;;;;2097709;28;20186;-64
2021/09/04 01:28:02;;;;;;;4.83;3.33;;;10.90;91.30;;;;;;2097646;28;20575;-63
2021/09/04 01:29:04;;;;;;;5.18;3.17;;;10.80;91.50;;;;;;2098201;28;20191;-63
2021/09/04 01:30:08;;;;;;;4.35;2.97;;;10.80;91.50;;;;;;2105978;28;20182;-63
2021/09/04 01:31:09;;;;;;;4.68;3.05;;;10.80;91.60;;;;;;2106393;28;20258;-62
2021/09/04 01:32:10;;;;;;;4.90;3.47;;;10.80;91.80;;;;;;2106704;28;20173;-65
2021/09/04 01:33:11;;;;;;;6.15;3.88;;;10.80;91.80;;;;;;2106622;28;20182;-64
2021/09/04 01:34:13;;;;;;;5.07;3.43;;;10.80;91.90;;;;;;2106545;28;20269;-64
2021/09/04 01:35:19;;;;;;;5.20;3.40;;;10.80;91.90;;;;;;2106689;28;20184;-62
2021/09/04 01:36:34;;;;;;;5.97;3.95;;;10.80;91.90;;;;;;2106665;28;20622;-64
2021/09/04 01:37:35;;;;;;;5.18;2.90;;;10.80;91.90;;;;;;2105949;28;20155;-63
2021/09/04 01:38:36;;;;;;;5.67;3.80;;;10.70;92.00;;;;;;2105914;28;20264;-63
2021/09/04 01:39:36;;;;;;;7.53;3.80;;;10.70;92.10;;;;;;2106361;28;20440;-65
2021/09/04 01:40:37;;;;;;;5.03;3.60;;;10.70;92.20;;;;;;2106460;28;20205;-64
2021/09/04 01:41:42;;;;;;;6.57;3.60;;;10.70;92.20;;;;;;2106530;28;20194;-61
2021/09/04 01:42:45;;;;;;;6.65;3.83;;;10.70;92.20;;;;;;2106448;28;20159;-64
2021/09/04 01:43:45;;;;;;;6.43;3.90;;;10.70;92.20;;;;;;2106466;28;20338;-62
2021/09/04 01:44:46;;;;;;;4.30;3.07;;;10.80;92.30;;;;;;2106600;28;20178;-65
2021/09/04 01:45:47;;;;;;;6.37;3.77;;;10.70;92.30;;;;;;2106672;28;20182;-64
2021/09/04 01:46:47;;;;;;;4.73;3.50;;;10.70;92.40;;;;;;2106462;28;20208;-63
2021/09/04 01:47:48;;;;;;;5.00;3.50;;;10.70;92.40;;;;;;2106408;28;20186;-64
2021/09/04 01:48:49;;;;;;;7.22;3.97;;;10.70;92.40;;;;;;2105581;28;20181;-67
2021/09/04 01:49:50;;;;;;;4.60;3.37;;;10.80;92.40;;;;;;2105841;28;20263;-64
2021/09/04 01:50:51;;;;;;;6.33;3.60;;;10.80;92.30;;;;;;2105965;28;20264;-64
2021/09/04 01:51:51;;;;;;;4.37;3.07;;;10.80;92.00;;;;;;2105899;28;20246;-64
2021/09/04 01:52:52;;;;;;;5.57;3.53;;;10.80;92.10;;;;;;2106681;28;20179;-66
2021/09/04 01:53:53;;;;;;;6.13;3.87;;;10.80;92.10;;;;;;2106323;28;20177;-63
2021/09/04 01:54:53;;;;;;;8.13;3.77;;;10.70;92.10;;;;;;2106503;28;20185;-64
2021/09/04 01:55:54;;;;;;;5.70;3.77;;;10.70;92.30;;;;;;2106494;28;20238;-64
2021/09/04 01:56:55;;;;;;;7.17;3.43;;;10.70;92.30;;;;;;2106526;28;20209;-63
2021/09/04 01:57:55;;;;;;;5.90;3.97;;;10.70;92.40;;;;;;2106424;28;20247;-62
2021/09/04 01:58:56;;;;;;;6.67;4.17;;;10.70;92.50;;;;;;2106261;28;20182;-64
2021/09/04 01:59:57;;;;;;;6.53;4.00;;;10.60;92.50;;;;;;2106249;28;20186;-65
2021/09/04 02:00:58;;;;;;;5.83;2.90;;;10.60;92.50;;;;;;2106395;28;20190;-62
2021/09/04 02:01:59;;;;;;;5.18;3.55;;;10.60;92.50;;;;;;2106440;28;20312;-65
2021/09/04 02:02:59;;;;;;;7.43;3.70;;;10.70;92.50;;;;;;2106641;28;20634;-63
2021/09/04 02:04:00;;;;;;;5.27;3.37;;;10.60;92.40;;;;;;2106395;28;20178;-63
2021/09/04 02:05:01;;;;;;;9.90;3.57;;;10.60;92.50;;;;;;2100135;28;20171;-64
2021/09/04 02:06:03;;;;;;;5.57;3.13;;;10.70;92.30;;;;;;2093914;28;20185;-64
2021/09/04 02:07:04;;;;;;;3.95;3.28;;;10.70;92.30;;;;;;2097920;28;20270;-64
2021/09/04 02:08:05;;;;;;;6.23;3.60;;;10.70;92.20;;;;;;2098075;28;20187;-63
2021/09/04 02:09:06;;;;;;;8.53;4.40;;;10.70;92.10;;;;;;2097668;28;20426;-63
2021/09/04 02:10:08;;;;;;;5.27;3.07;;;10.70;92.10;;;;;;2098277;28;20646;-62
2021/09/04 02:11:09;;;;;;;5.82;3.35;;;10.70;92.10;;;;;;2099127;28;20259;-63
2021/09/04 02:12:09;;;;;;;5.90;3.63;;;10.70;92.10;;;;;;2099612;28;20544;-64
2021/09/04 02:13:10;;;;;;;4.07;2.83;;;10.70;92.10;;;;;;2099700;28;20455;-63
2021/09/04 02:14:11;;;;;;;5.53;3.70;;;10.70;92.10;;;;;;2099687;28;20213;-65
2021/09/04 02:15:13;;;;;;;6.47;3.93;;;10.70;92.20;;;;;;2099747;28;20656;-64
2021/09/04 02:16:14;;;;;;;7.00;3.80;;;10.60;92.20;;;;;;2099857;28;20187;-65
2021/09/04 02:17:15;;;;;;;4.13;3.23;;;10.60;92.20;;;;;;2099622;28;20271;-63
2021/09/04 02:18:15;;;;;;;5.97;3.93;;;10.60;92.30;;;;;;2099636;28;20213;-65
2021/09/04 02:19:16;;;;;;;5.10;3.33;;;10.60;92.40;;;;;;2099428;28;20183;-64
2021/09/04 02:20:17;;;;;;;4.53;2.90;;;10.60;92.40;;;;;;2099442;28;20212;-63
2021/09/04 02:21:18;;;;;;;4.50;3.03;;;10.60;92.40;;;;;;2099500;28;20191;-64
2021/09/04 02:22:18;;;;;;;5.70;3.20;;;10.60;92.50;;;;;;2099665;28;20702;-64
2021/09/04 02:23:19;;;;;;;5.20;3.50;;;10.60;92.40;;;;;;2099481;28;20206;-66
2021/09/04 02:24:20;;;;;;;4.27;3.17;;;10.60;92.40;;;;;;2099527;28;20225;-65
2021/09/04 02:25:20;;;;;;;4.13;3.07;;;10.60;92.50;;;;;;2099600;28;20199;-64
2021/09/04 02:26:21;;;;;;;5.33;3.20;;;10.60;92.50;;;;;;2099561;28;20653;-64
2021/09/04 02:27:22;;;;;;;4.53;3.17;;;10.60;92.50;;;;;;2099538;28;20171;-63
2021/09/04 02:28:22;;;;;;;3.90;3.27;;;10.60;92.50;;;;;;2099483;28;20548;-63
2021/09/04 02:29:23;;;;;;;5.73;3.20;;;10.60;92.50;;;;;;2099261;28;20216;-63
2021/09/04 02:30:24;;;;;;;4.97;3.10;;;10.60;92.50;;;;;;2099422;28;20210;-63
2021/09/04 02:31:25;;;;;;;4.47;3.40;;;10.60;92.50;;;;;;2099521;28;20206;-62
2021/09/04 02:32:25;;;;;;;4.03;2.67;;;10.60;92.50;;;;;;2099644;28;20189;-65
2021/09/04 02:33:26;;;;;;;5.67;3.77;;;10.60;92.40;;;;;;2099558;28;20931;-63
2021/09/04 02:34:27;;;;;;;4.90;3.40;;;10.60;92.40;;;;;;2099466;28;20183;-64
2021/09/04 02:35:27;;;;;;;4.57;3.20;;;10.60;92.50;;;;;;2099015;28;20179;-65
2021/09/04 02:36:28;;;;;;;3.83;3.23;;;10.60;92.40;;;;;;2098829;28;20170;-64
2021/09/04 02:37:29;;;;;;;5.47;3.77;;;10.60;92.40;;;;;;2099548;28;20243;-63
2021/09/04 02:38:30;;;;;;;4.40;3.20;;;10.60;92.30;;;;;;2099447;28;20183;-64
2021/09/04 02:39:30;;;;;;;8.27;3.10;;;10.60;92.60;;;;;;2099065;28;20267;-64
2021/09/04 02:40:31;;;;;;;5.50;3.77;;;10.60;92.60;;;;;;2099287;28;20572;-66
2021/09/04 02:41:32;;;;;;;4.30;3.40;;;10.60;92.70;;;;;;2099387;28;20192;-65
2021/09/04 02:42:33;;;;;;;5.55;3.47;;;10.60;92.60;;;;;;2099344;28;20186;-62
2021/09/04 02:43:34;;;;;;;5.53;3.57;;;10.60;92.50;;;;;;2099409;28;20606;-63
2021/09/04 02:44:35;;;;;;;4.13;3.10;;;10.60;92.40;;;;;;2099323;28;20181;-63
2021/09/04 02:45:35;;;;;;;5.03;3.10;;;10.60;92.30;;;;;;2099482;28;20529;-62
2021/09/04 02:46:36;;;;;;;4.87;3.30;;;10.60;92.30;;;;;;2099358;28;20172;-65
2021/09/04 02:47:38;;;;;;;4.47;3.13;;;10.60;92.10;;;;;;2099326;28;20540;-63
2021/09/04 02:48:39;;;;;;;6.97;4.03;;;10.60;92.10;;;;;;2099261;28;20203;-63
2021/09/04 02:49:39;;;;;;;4.73;3.23;;;10.60;92.20;;;;;;2099252;28;20174;-63
2021/09/04 02:50:40;;;;;;;4.93;3.13;;;10.50;92.20;;;;;;2099389;28;20600;-64
2021/09/04 02:51:41;;;;;;;4.87;3.70;;;10.50;92.30;;;;;;2099379;28;20690;-63
2021/09/04 02:52:42;;;;;;;5.30;3.13;;;10.50;92.30;;;;;;2099291;28;20753;-64
2021/09/04 02:53:42;;;;;;;5.47;3.07;;;10.50;92.30;;;;;;2099353;28;20240;-63
2021/09/04 02:54:43;;;;;;;4.67;3.00;;;10.50;92.40;;;;;;2099316;28;20281;-65
2021/09/04 02:55:44;;;;;;;4.03;3.13;;;10.50;92.60;;;;;;2099359;28;20572;-60
2021/09/04 02:56:45;;;;;;;4.87;3.33;;;10.50;92.60;;;;;;2099480;28;20191;-66
2021/09/04 02:57:45;;;;;;;4.40;3.13;;;10.50;92.50;;;;;;2099207;28;20664;-63
2021/09/04 02:58:46;;;;;;;6.97;3.17;;;10.50;92.50;;;;;;2099202;28;20240;-61
2021/09/04 02:59:47;;;;;;;7.33;3.07;;;10.50;92.40;;;;;;2099092;28;20206;-63
2021/09/04 03:00:47;;;;;;;5.80;3.30;;;10.50;92.30;;;;;;2099251;28;20219;-62
2021/09/04 03:01:48;;;;;;;6.67;3.57;;;10.50;92.30;;;;;;2099109;28;20209;-63
2021/09/04 03:02:50;;;;;;;12.87;3.17;;;10.50;92.20;;;;;;2099223;28;20179;-63
2021/09/04 03:03:50;;;;;;;7.47;3.45;;;10.50;92.20;;;;;;2098686;28;20191;-65
2021/09/04 03:04:51;;;;;;;3.30;2.80;;;10.50;92.10;;;;;;2098724;28;20700;-63
2021/09/04 03:05:52;;;;;;;6.73;3.57;;;10.50;92.10;;;;;;2099232;28;20211;-63
2021/09/04 03:06:52;;;;;;;8.20;3.97;;;10.50;92.20;;;;;;2099234;28;20593;-65
2021/09/04 03:07:53;;;;;;;4.97;2.83;;;10.50;92.10;;;;;;2099178;28;20182;-62
2021/09/04 03:08:54;;;;;;;5.80;3.20;;;10.50;92.10;;;;;;2098991;28;20572;-63
2021/09/04 03:09:55;;;;;;;4.07;2.75;;;10.40;92.20;;;;;;2099172;28;20673;-62
2021/09/04 03:10:56;;;;;;;5.87;2.90;;;10.50;92.10;;;;;;2099205;28;20183;-63
2021/09/04 03:11:57;;;;;;;7.97;3.20;;;10.50;92.10;;;;;;2099131;28;20665;-63
2021/09/04 03:12:57;;;;;;;5.87;3.70;;;10.40;92.50;;;;;;2099278;28;20182;-67
2021/09/04 03:13:58;;;;;;;4.90;3.40;;;10.40;92.10;;;;;;2099094;28;20205;-61
2021/09/04 03:14:59;;;;;;;3.30;2.47;;;10.40;92.10;;;;;;2099278;28;20179;-62
2021/09/04 03:16:00;;;;;;;5.43;3.33;;;10.40;92.20;;;;;;2099161;28;20186;-63
2021/09/04 03:17:00;;;;;;;5.40;3.37;;;10.40;92.30;;;;;;2099212;28;20200;-60
2021/09/04 03:18:01;;;;;;;6.27;4.10;;;10.40;92.40;;;;;;2099057;28;20673;-65
2021/09/04 03:19:02;;;;;;;4.87;3.20;;;10.40;92.50;;;;;;2098102;28;20227;-63
2021/09/04 03:20:04;;;;;;;4.37;3.43;;;10.40;92.60;;;;;;2098341;28;20193;-63
2021/09/04 03:21:05;;;;;;;8.18;4.00;;;10.30;92.70;;;;;;2099025;28;20183;-62
2021/09/04 03:22:05;;;;;;;4.77;3.27;;;10.40;92.80;;;;;;2098356;28;20190;-64
2021/09/04 03:23:06;;;;;;;5.03;3.93;;;10.40;92.50;;;;;;2098948;28;20191;-64
2021/09/04 03:24:07;;;;;;;5.37;3.67;;;10.40;92.90;;;;;;2099045;28;20178;-63
2021/09/04 03:25:08;;;;;;;5.03;3.43;;;10.40;93.10;;;;;;2099169;28;20197;-63
2021/09/04 03:26:09;;;;;;;5.57;3.45;;;10.40;93.10;;;;;;2098966;28;20179;-61
2021/09/04 03:27:10;;;;;;;5.97;3.90;;;10.40;93.00;;;;;;2099107;28;20594;-63
2021/09/04 03:28:11;;;;;;;5.68;3.22;;;10.40;92.90;;;;;;2099008;28;20673;-63
2021/09/04 03:29:11;;;;;;;4.27;3.47;;;10.40;92.80;;;;;;2098827;28;20187;-63
2021/09/04 03:30:12;;;;;;;4.47;3.37;;;10.30;92.70;;;;;;2098935;28;20544;-65
2021/09/04 03:31:13;;;;;;;5.90;3.60;;;10.30;92.80;;;;;;2098951;28;20198;-63
2021/09/04 03:32:13;;;;;;;5.40;3.50;;;10.30;92.80;;;;;;2099047;28;20190;-65
2021/09/04 03:33:14;;;;;;;5.77;4.03;;;10.30;92.80;;;;;;2098970;28;20186;-63
2021/09/04 03:34:15;;;;;;;4.10;3.10;;;10.40;92.80;;;;;;2099141;28;20205;-63
2021/09/04 03:35:15;;;;;;;5.17;3.50;;;10.30;92.80;;;;;;2098930;28;20213;-64
2021/09/04 03:36:16;;;;;;;7.00;3.27;;;10.40;93.00;;;;;;2098931;28;20205;-63
2021/09/04 03:37:17;;;;;;;4.37;2.83;;;10.30;92.80;;;;;;2098818;28;20285;-62
2021/09/04 03:38:18;;;;;;;5.20;3.50;;;10.40;92.80;;;;;;2098951;28;20726;-65
2021/09/04 03:39:18;;;;;;;7.77;3.73;;;10.40;92.80;;;;;;2098690;28;20179;-61
2021/09/04 03:40:19;;;;;;;5.63;3.27;;;10.40;92.80;;;;;;2098872;28;20585;-63
2021/09/04 03:41:20;;;;;;;5.87;3.67;;;10.40;92.90;;;;;;2098865;28;20205;-64
2021/09/04 03:42:21;;;;;;;5.53;3.50;;;10.40;93.10;;;;;;2098319;28;20179;-63
2021/09/04 03:43:21;;;;;;;3.93;3.23;;;10.40;93.00;;;;;;2098394;28;20176;-63
2021/09/04 03:44:22;;;;;;;5.73;3.80;;;10.40;92.80;;;;;;2098931;28;20650;-63
2021/09/04 03:45:23;;;;;;;5.07;3.50;;;10.40;92.70;;;;;;2098884;28;20263;-63
2021/09/04 03:46:23;;;;;;;5.00;4.03;;;10.40;92.60;;;;;;2098856;28;20178;-63
2021/09/04 03:47:24;;;;;;;5.40;3.43;;;10.40;92.50;;;;;;2098140;28;20194;-63
2021/09/04 03:48:25;;;;;;;6.43;3.77;;;10.40;92.60;;;;;;2098313;28;20175;-63
2021/09/04 03:49:25;;;;;;;4.47;3.30;;;10.40;92.60;;;;;;2098578;28;20178;-61
2021/09/04 03:50:26;;;;;;;6.93;3.53;;;10.40;92.70;;;;;;2098823;28;20187;-64
2021/09/04 03:51:28;;;;;;;6.23;3.77;;;10.30;92.70;;;;;;2098481;28;20213;-63
2021/09/04 03:52:28;;;;;;;4.78;3.28;;;10.30;92.80;;;;;;2098339;28;20292;-62
2021/09/04 03:53:29;;;;;;;6.97;3.80;;;10.30;92.80;;;;;;2098265;28;20792;-63
2021/09/04 03:54:30;;;;;;;4.87;3.40;;;10.30;93.00;;;;;;2098990;28;20190;-64
2021/09/04 03:55:31;;;;;;;4.27;2.90;;;10.30;93.00;;;;;;2098663;28;20191;-62
2021/09/04 03:56:31;;;;;;;4.60;3.10;;;10.40;93.00;;;;;;2098885;28;20179;-63
2021/09/04 03:57:32;;;;;;;4.33;2.83;;;10.30;93.00;;;;;;2098650;28;20215;-64
2021/09/04 03:58:33;;;;;;;5.40;3.70;;;10.30;93.00;;;;;;2098750;28;20232;-65
2021/09/04 03:59:34;;;;;;;8.30;3.13;;;10.30;93.10;;;;;;2098534;28;20243;-62
2021/09/04 04:00:34;;;;;;;4.80;4.00;;;10.30;93.20;;;;;;2098727;28;20230;-64
2021/09/04 04:01:35;;;;;;;5.90;3.23;;;10.30;93.20;;;;;;2098732;28;20219;-63
2021/09/04 04:02:36;;;;;;;5.43;3.03;;;10.30;93.10;;;;;;2098806;28;20185;-63
2021/09/04 04:03:36;;;;;;;4.43;3.53;;;10.40;92.90;;;;;;2098567;28;20170;-62
2021/09/04 04:04:37;;;;;;;4.23;3.23;;;10.40;92.90;;;;;;2098691;28;20657;-61
2021/09/04 04:05:38;;;;;;;6.10;3.93;;;10.30;92.90;;;;;;2098547;28;20180;-61
2021/09/04 04:06:38;;;;;;;5.50;3.70;;;10.30;93.00;;;;;;2098696;28;20181;-65
2021/09/04 04:07:39;;;;;;;5.17;3.30;;;10.30;93.10;;;;;;2102881;28;20169;-63
2021/09/04 04:08:40;;;;;;;7.10;3.27;;;10.30;93.20;;;;;;2106944;28;20192;-61
2021/09/04 04:09:40;;;;;;;5.33;3.20;;;10.30;93.10;;;;;;2106905;28;20268;-64
2021/09/04 04:10:41;;;;;;;4.37;3.53;;;10.30;93.10;;;;;;2107096;28;20607;-63
2021/09/04 04:11:42;;;;;;;6.13;3.27;;;10.30;93.10;;;;;;2107157;28;20201;-62
2021/09/04 04:12:43;;;;;;;5.70;3.40;;;10.30;93.20;;;;;;2107133;28;20178;-64
2021/09/04 04:13:43;;;;;;;5.57;3.13;;;10.30;93.20;;;;;;2107247;28;20265;-63
2021/09/04 04:14:44;;;;;;;4.40;3.47;;;10.30;93.30;;;;;;2107116;28;20251;-62
2021/09/04 04:15:45;;;;;;;4.83;3.43;;;10.30;93.20;;;;;;2107120;28;20182;-65
2021/09/04 04:16:45;;;;;;;6.80;3.43;;;10.30;93.20;;;;;;2106967;28;20179;-62
2021/09/04 04:17:46;;;;;;;5.47;3.80;;;10.30;93.20;;;;;;2107142;28;20182;-64
2021/09/04 04:18:47;;;;;;;6.40;3.97;;;10.30;93.20;;;;;;2106955;28;20205;-64
2021/09/04 04:19:47;;;;;;;4.77;3.33;;;10.30;93.20;;;;;;2106979;28;20182;-63
2021/09/04 04:20:48;;;;;;;6.60;3.47;;;10.30;93.10;;;;;;2106666;28;20327;-64
2021/09/04 04:21:49;;;;;;;6.43;3.73;;;10.30;93.10;;;;;;2107012;28;20202;-65
2021/09/04 04:22:49;;;;;;;4.47;3.77;;;10.30;93.10;;;;;;2106782;28;20231;-63
2021/09/04 04:23:50;;;;;;;4.70;3.60;;;10.30;93.00;;;;;;2107118;28;20195;-62
2021/09/04 04:24:51;;;;;;;5.70;3.87;;;10.30;92.90;;;;;;2106861;28;20277;-63
2021/09/04 04:25:52;;;;;;;5.53;3.53;;;10.30;92.80;;;;;;2107110;28;20175;-62
2021/09/04 04:26:53;;;;;;;5.68;3.20;;;10.30;92.80;;;;;;2106898;28;20779;-63
2021/09/04 04:27:53;;;;;;;5.93;3.57;;;10.30;92.70;;;;;;2107079;28;20182;-64
2021/09/04 04:28:54;;;;;;;4.23;2.90;;;10.30;92.80;;;;;;2106687;28;20698;-64
2021/09/04 04:29:55;;;;;;;5.03;3.20;;;10.20;92.90;;;;;;2106903;28;20182;-63
2021/09/04 04:30:56;;;;;;;4.50;3.20;;;10.20;93.00;;;;;;2106855;28;20190;-63
2021/09/04 04:31:56;;;;;;;5.53;3.63;;;10.20;93.10;;;;;;2106921;28;20189;-60
2021/09/04 04:32:57;;;;;;;5.37;3.50;;;10.20;93.10;;;;;;2106837;28;20579;-63
2021/09/04 04:33:58;;;;;;;4.47;3.07;;;10.20;93.20;;;;;;2106775;28;20268;-63
2021/09/04 04:34:58;;;;;;;6.13;3.67;;;10.20;93.30;;;;;;2106895;28;20197;-64
2021/09/04 04:35:59;;;;;;;5.27;3.53;;;10.20;93.40;;;;;;2107078;28;20684;-60
2021/09/04 04:37:00;;;;;;;5.43;3.60;;;10.20;93.50;;;;;;2106829;28;20228;-64
2021/09/04 04:38:01;;;;;;;5.33;3.73;;;10.20;93.40;;;;;;2106848;28;20197;-61
2021/09/04 04:39:03;;;;;;;5.07;3.40;;;10.20;93.50;;;;;;2106033;28;20246;-64
2021/09/04 04:40:04;;;;;;;6.25;4.03;;;10.20;93.60;;;;;;2106239;28;20182;-63
2021/09/04 04:41:05;;;;;;;9.40;4.22;;;10.20;93.60;;;;;;2106631;28;20212;-63
2021/09/04 04:42:06;;;;;;;4.70;3.80;;;10.20;93.50;;;;;;2106850;28;20185;-64
2021/09/04 04:43:06;;;;;;;4.77;3.07;;;10.20;93.50;;;;;;2106818;28;20208;-63
2021/09/04 04:44:07;;;;;;;7.47;3.63;;;10.20;93.50;;;;;;2106825;28;20206;-62
2021/09/04 04:45:08;;;;;;;4.63;3.43;;;10.20;93.40;;;;;;2106965;28;20710;-64
2021/09/04 04:46:09;;;;;;;4.32;3.65;;;10.20;93.40;;;;;;2106193;28;20173;-62
2021/09/04 04:47:09;;;;;;;6.43;3.80;;;10.20;93.40;;;;;;2106341;28;20182;-62
2021/09/04 04:48:10;;;;;;;5.40;3.97;;;10.20;93.50;;;;;;2106686;28;20175;-64
2021/09/04 04:49:11;;;;;;;6.17;3.53;;;10.20;93.60;;;;;;2106526;28;20185;-62
2021/09/04 04:50:12;;;;;;;4.13;3.03;;;10.20;93.70;;;;;;2106134;28;20174;-63
2021/09/04 04:51:12;;;;;;;6.70;4.00;;;10.20;93.70;;;;;;2106109;28;20274;-64
2021/09/04 04:52:13;;;;;;;5.13;3.73;;;10.20;93.60;;;;;;2106741;28;20181;-63
2021/09/04 04:53:14;;;;;;;6.17;4.33;;;10.20;93.50;;;;;;2106866;28;20540;-61
2021/09/04 04:54:15;;;;;;;4.90;3.60;;;10.20;93.40;;;;;;2106788;28;20178;-63
2021/09/04 04:55:15;;;;;;;5.20;3.33;;;10.20;93.40;;;;;;2106954;28;20665;-63
2021/09/04 04:56:16;;;;;;;5.97;3.23;;;10.20;93.50;;;;;;2106770;28;20187;-64
2021/09/04 04:57:17;;;;;;;6.73;4.07;;;10.20;93.50;;;;;;2106718;28;20206;-65
2021/09/04 04:58:17;;;;;;;4.70;3.87;;;10.20;93.50;;;;;;2106499;28;20190;-64
2021/09/04 04:59:18;;;;;;;5.87;4.23;;;10.20;93.40;;;;;;2106268;28;20266;-65
2021/09/04 05:00:19;;;;;;;5.10;3.47;;;10.20;93.50;;;;;;2106356;28;20183;-64
2021/09/04 05:01:19;;;;;;;6.87;3.57;;;10.20;93.50;;;;;;2106517;28;20214;-64
2021/09/04 05:02:20;;;;;;;4.73;3.53;;;10.30;93.50;;;;;;2106453;28;20590;-65
2021/09/04 05:03:21;;;;;;;5.73;3.70;;;10.20;93.40;;;;;;2106467;28;20229;-64
2021/09/04 05:04:21;;;;;;;5.27;3.60;;;10.20;93.30;;;;;;2106386;28;20189;-65
2021/09/04 05:05:22;;;;;;;6.80;3.80;;;10.20;93.30;;;;;;2106607;28;20183;-64
2021/09/04 05:06:23;;;;;;;7.53;3.60;;;10.30;93.30;;;;;;2106340;28;20200;-64
2021/09/04 05:07:23;;;;;;;5.23;3.20;;;10.30;93.30;;;;;;2106419;28;20182;-63
2021/09/04 05:08:24;;;;;;;4.13;3.13;;;10.30;93.30;;;;;;2106371;28;20182;-65
2021/09/04 05:09:25;;;;;;;4.70;3.10;;;10.30;93.20;;;;;;2106208;28;20171;-66
2021/09/04 05:10:26;;;;;;;4.40;3.13;;;10.30;93.10;;;;;;2106430;28;20637;-63
2021/09/04 05:11:26;;;;;;;3.70;3.10;;;10.30;93.10;;;;;;2106346;28;20194;-63
2021/09/04 05:12:27;;;;;;;5.07;3.47;;;10.30;93.10;;;;;;2106365;28;20182;-64
2021/09/04 05:13:28;;;;;;;3.93;3.27;;;10.30;93.10;;;;;;2106400;28;20254;-66
2021/09/04 05:14:28;;;;;;;9.37;4.20;;;10.30;93.10;;;;;;2106347;28;20572;-63
2021/09/04 05:15:29;;;;;;;4.43;3.60;;;10.30;93.10;;;;;;2106474;28;20179;-65
2021/09/04 05:16:30;;;;;;;4.60;3.50;;;10.30;93.10;;;;;;2106420;28;20706;-66
2021/09/04 05:17:31;;;;;;;3.53;2.57;;;10.40;93.10;;;;;;2106429;28;20232;-64